sensor_id;sensor_type;location;lat;lon;timestamp;P1;durP1;ratioP1;P2;durP2;ratioP2
36995;SDS011;22905;50.340;10.776;2023-09-07T00:02:11;11.18;;;6.32;;
36995;SDS011;22905;50.340;10.776;2023-09-07T00:07:11;10.00;;;6.43;;
36995;SDS011;22905;50.340;10.776;2023-09-07T00:12:12;12.85;;;6.78;;
36995;SDS011;22905;50.340;10.776;2023-09-07T00:17:12;9.95;;;6.93;;
36995;SDS011;22905;50.340;10.776;2023-09-07T00:22:13;8.60;;;6.47;;
36995;SDS011;22905;50.340;10.776;2023-09-07T00:27:13;15.40;;;6.97;;
36995;SDS011;22905;50.340;10.776;2023-09-07T00:32:14;12.85;;;6.55;;
36995;SDS011;22905;50.340;10.776;2023-09-07T00:37:14;14.68;;;6.82;;
36995;SDS011;22905;50.340;10.776;2023-09-07T00:42:14;17.92;;;7.72;;
36995;SDS011;22905;50.340;10.776;2023-09-07T00:47:16;14.20;;;6.47;;
36995;SDS011;22905;50.340;10.776;2023-09-07T00:52:16;11.15;;;7.38;;
36995;SDS011;22905;50.340;10.776;2023-09-07T00:57:17;10.15;;;6.35;;
36995;SDS011;22905;50.340;10.776;2023-09-07T01:02:17;9.27;;;6.47;;
36995;SDS011;22905;50.340;10.776;2023-09-07T01:07:20;13.52;;;6.38;;
36995;SDS011;22905;50.340;10.776;2023-09-07T01:12:21;12.60;;;7.13;;
36995;SDS011;22905;50.340;10.776;2023-09-07T01:17:21;10.20;;;6.13;;
36995;SDS011;22905;50.340;10.776;2023-09-07T01:22:22;10.50;;;6.80;;
36995;SDS011;22905;50.340;10.776;2023-09-07T01:27:23;12.07;;;7.30;;
36995;SDS011;22905;50.340;10.776;2023-09-07T01:32:23;11.63;;;6.60;;
36995;SDS011;22905;50.340;10.776;2023-09-07T01:37:23;10.57;;;7.47;;
36995;SDS011;22905;50.340;10.776;2023-09-07T01:42:24;9.67;;;6.90;;
36995;SDS011;22905;50.340;10.776;2023-09-07T01:47:24;12.68;;;7.90;;
36995;SDS011;22905;50.340;10.776;2023-09-07T01:52:24;10.47;;;7.30;;
36995;SDS011;22905;50.340;10.776;2023-09-07T01:57:25;14.23;;;7.00;;
36995;SDS011;22905;50.340;10.776;2023-09-07T02:02:25;10.35;;;7.38;;
36995;SDS011;22905;50.340;10.776;2023-09-07T02:07:26;10.30;;;7.60;;
36995;SDS011;22905;50.340;10.776;2023-09-07T02:12:26;10.97;;;7.67;;
36995;SDS011;22905;50.340;10.776;2023-09-07T02:17:26;11.87;;;8.23;;
36995;SDS011;22905;50.340;10.776;2023-09-07T02:22:27;10.90;;;7.53;;
36995;SDS011;22905;50.340;10.776;2023-09-07T02:27:27;11.77;;;8.17;;
36995;SDS011;22905;50.340;10.776;2023-09-07T02:32:27;10.27;;;7.30;;
36995;SDS011;22905;50.340;10.776;2023-09-07T02:37:28;14.85;;;7.85;;
36995;SDS011;22905;50.340;10.776;2023-09-07T02:42:28;13.57;;;6.63;;
36995;SDS011;22905;50.340;10.776;2023-09-07T02:47:28;11.83;;;7.33;;
36995;SDS011;22905;50.340;10.776;2023-09-07T02:52:28;13.37;;;6.43;;
36995;SDS011;22905;50.340;10.776;2023-09-07T02:57:29;12.63;;;7.10;;
36995;SDS011;22905;50.340;10.776;2023-09-07T03:02:29;11.97;;;7.00;;
36995;SDS011;22905;50.340;10.776;2023-09-07T03:07:32;16.13;;;7.32;;
36995;SDS011;22905;50.340;10.776;2023-09-07T03:12:33;10.48;;;7.40;;
36995;SDS011;22905;50.340;10.776;2023-09-07T03:17:34;13.00;;;8.23;;
36995;SDS011;22905;50.340;10.776;2023-09-07T03:22:34;11.90;;;8.03;;
36995;SDS011;22905;50.340;10.776;2023-09-07T03:27:34;14.95;;;7.75;;
36995;SDS011;22905;50.340;10.776;2023-09-07T03:32:34;12.63;;;8.60;;
36995;SDS011;22905;50.340;10.776;2023-09-07T03:37:35;11.20;;;8.00;;
36995;SDS011;22905;50.340;10.776;2023-09-07T03:42:35;13.32;;;7.38;;
36995;SDS011;22905;50.340;10.776;2023-09-07T03:47:36;12.85;;;7.10;;
36995;SDS011;22905;50.340;10.776;2023-09-07T03:52:37;14.55;;;8.40;;
36995;SDS011;22905;50.340;10.776;2023-09-07T03:57:37;10.43;;;7.43;;
36995;SDS011;22905;50.340;10.776;2023-09-07T04:02:38;13.13;;;8.10;;
36995;SDS011;22905;50.340;10.776;2023-09-07T04:07:38;12.23;;;9.05;;
36995;SDS011;22905;50.340;10.776;2023-09-07T04:12:38;12.63;;;8.07;;
36995;SDS011;22905;50.340;10.776;2023-09-07T04:17:38;13.60;;;8.90;;
36995;SDS011;22905;50.340;10.776;2023-09-07T04:22:40;15.20;;;9.07;;
36995;SDS011;22905;50.340;10.776;2023-09-07T04:27:40;13.53;;;9.73;;
36995;SDS011;22905;50.340;10.776;2023-09-07T04:32:40;18.25;;;10.55;;
36995;SDS011;22905;50.340;10.776;2023-09-07T04:37:41;15.98;;;10.02;;
36995;SDS011;22905;50.340;10.776;2023-09-07T04:42:43;15.82;;;10.75;;
36995;SDS011;22905;50.340;10.776;2023-09-07T04:47:43;13.70;;;8.80;;
36995;SDS011;22905;50.340;10.776;2023-09-07T04:52:44;13.13;;;8.32;;
36995;SDS011;22905;50.340;10.776;2023-09-07T04:57:44;16.75;;;8.90;;
36995;SDS011;22905;50.340;10.776;2023-09-07T05:02:44;13.90;;;7.97;;
36995;SDS011;22905;50.340;10.776;2023-09-07T05:07:46;11.32;;;7.93;;
36995;SDS011;22905;50.340;10.776;2023-09-07T05:12:46;21.55;;;10.52;;
36995;SDS011;22905;50.340;10.776;2023-09-07T05:17:47;20.88;;;8.82;;
36995;SDS011;22905;50.340;10.776;2023-09-07T05:22:47;20.97;;;9.30;;
36995;SDS011;22905;50.340;10.776;2023-09-07T05:27:47;15.00;;;9.67;;
36995;SDS011;22905;50.340;10.776;2023-09-07T05:32:48;15.05;;;10.23;;
36995;SDS011;22905;50.340;10.776;2023-09-07T05:37:49;20.53;;;9.63;;
36995;SDS011;22905;50.340;10.776;2023-09-07T05:42:49;16.67;;;10.82;;
36995;SDS011;22905;50.340;10.776;2023-09-07T05:47:49;12.87;;;8.20;;
36995;SDS011;22905;50.340;10.776;2023-09-07T05:52:50;11.07;;;7.40;;
36995;SDS011;22905;50.340;10.776;2023-09-07T05:57:50;10.70;;;7.33;;
36995;SDS011;22905;50.340;10.776;2023-09-07T06:02:50;12.60;;;7.67;;
36995;SDS011;22905;50.340;10.776;2023-09-07T06:07:51;13.70;;;7.82;;
36995;SDS011;22905;50.340;10.776;2023-09-07T06:12:51;12.93;;;7.47;;
36995;SDS011;22905;50.340;10.776;2023-09-07T06:17:51;23.73;;;7.55;;
36995;SDS011;22905;50.340;10.776;2023-09-07T06:22:52;15.45;;;8.60;;
36995;SDS011;22905;50.340;10.776;2023-09-07T06:27:52;12.52;;;7.25;;
36995;SDS011;22905;50.340;10.776;2023-09-07T06:32:52;12.27;;;8.53;;
36995;SDS011;22905;50.340;10.776;2023-09-07T06:37:53;22.70;;;8.82;;
36995;SDS011;22905;50.340;10.776;2023-09-07T06:42:53;15.93;;;7.63;;
36995;SDS011;22905;50.340;10.776;2023-09-07T06:47:54;21.30;;;7.82;;
36995;SDS011;22905;50.340;10.776;2023-09-07T06:52:54;16.65;;;7.22;;
36995;SDS011;22905;50.340;10.776;2023-09-07T06:57:54;12.30;;;6.90;;
36995;SDS011;22905;50.340;10.776;2023-09-07T07:02:55;10.75;;;6.82;;
36995;SDS011;22905;50.340;10.776;2023-09-07T07:07:56;9.90;;;6.45;;
36995;SDS011;22905;50.340;10.776;2023-09-07T07:12:56;12.82;;;6.32;;
36995;SDS011;22905;50.340;10.776;2023-09-07T07:17:57;8.35;;;5.93;;
36995;SDS011;22905;50.340;10.776;2023-09-07T07:22:57;11.90;;;6.10;;
36995;SDS011;22905;50.340;10.776;2023-09-07T07:27:57;10.43;;;6.13;;
36995;SDS011;22905;50.340;10.776;2023-09-07T07:32:59;11.68;;;5.57;;
36995;SDS011;22905;50.340;10.776;2023-09-07T07:38:01;10.57;;;5.93;;
36995;SDS011;22905;50.340;10.776;2023-09-07T07:43:04;10.65;;;5.07;;
36995;SDS011;22905;50.340;10.776;2023-09-07T07:48:04;13.83;;;5.37;;
36995;SDS011;22905;50.340;10.776;2023-09-07T07:53:08;7.53;;;4.55;;
36995;SDS011;22905;50.340;10.776;2023-09-07T07:58:09;8.02;;;5.25;;
36995;SDS011;22905;50.340;10.776;2023-09-07T08:03:09;6.88;;;4.47;;
36995;SDS011;22905;50.340;10.776;2023-09-07T08:08:10;10.55;;;4.40;;
36995;SDS011;22905;50.340;10.776;2023-09-07T08:13:11;6.27;;;3.97;;
36995;SDS011;22905;50.340;10.776;2023-09-07T08:18:12;4.30;;;3.73;;
36995;SDS011;22905;50.340;10.776;2023-09-07T08:23:12;8.75;;;4.00;;
36995;SDS011;22905;50.340;10.776;2023-09-07T08:28:12;9.27;;;3.95;;
36995;SDS011;22905;50.340;10.776;2023-09-07T08:33:13;6.70;;;3.70;;
36995;SDS011;22905;50.340;10.776;2023-09-07T08:38:13;8.97;;;3.73;;
36995;SDS011;22905;50.340;10.776;2023-09-07T08:43:13;10.00;;;4.40;;
36995;SDS011;22905;50.340;10.776;2023-09-07T08:48:15;5.07;;;3.60;;
36995;SDS011;22905;50.340;10.776;2023-09-07T08:53:20;7.90;;;3.50;;
36995;SDS011;22905;50.340;10.776;2023-09-07T08:58:21;11.18;;;4.13;;
36995;SDS011;22905;50.340;10.776;2023-09-07T09:03:22;5.75;;;3.97;;
36995;SDS011;22905;50.340;10.776;2023-09-07T09:08:22;3.90;;;3.22;;
36995;SDS011;22905;50.340;10.776;2023-09-07T09:13:28;7.75;;;3.90;;
36995;SDS011;22905;50.340;10.776;2023-09-07T09:18:29;7.28;;;3.75;;
36995;SDS011;22905;50.340;10.776;2023-09-07T09:23:30;4.65;;;3.33;;
36995;SDS011;22905;50.340;10.776;2023-09-07T09:28:32;10.25;;;3.90;;
36995;SDS011;22905;50.340;10.776;2023-09-07T09:33:33;4.03;;;3.40;;
36995;SDS011;22905;50.340;10.776;2023-09-07T09:38:34;7.30;;;3.30;;
36995;SDS011;22905;50.340;10.776;2023-09-07T09:43:35;7.20;;;3.70;;
36995;SDS011;22905;50.340;10.776;2023-09-07T09:48:35;7.50;;;3.00;;
36995;SDS011;22905;50.340;10.776;2023-09-07T09:53:36;4.97;;;3.90;;
36995;SDS011;22905;50.340;10.776;2023-09-07T09:58:36;3.90;;;3.20;;
36995;SDS011;22905;50.340;10.776;2023-09-07T10:03:41;4.43;;;3.23;;
36995;SDS011;22905;50.340;10.776;2023-09-07T10:08:58;7.20;;;3.20;;
36995;SDS011;22905;50.340;10.776;2023-09-07T10:14:00;6.82;;;4.00;;
36995;SDS011;22905;50.340;10.776;2023-09-07T10:19:03;8.73;;;3.90;;
36995;SDS011;22905;50.340;10.776;2023-09-07T10:29:26;4.75;;;3.20;;
36995;SDS011;22905;50.340;10.776;2023-09-07T10:34:35;4.30;;;3.33;;
36995;SDS011;22905;50.340;10.776;2023-09-07T10:39:37;8.93;;;2.90;;
36995;SDS011;22905;50.340;10.776;2023-09-07T10:44:39;4.32;;;3.10;;
36995;SDS011;22905;50.340;10.776;2023-09-07T10:49:39;4.77;;;3.40;;
36995;SDS011;22905;50.340;10.776;2023-09-07T10:54:39;3.33;;;2.95;;
36995;SDS011;22905;50.340;10.776;2023-09-07T10:59:46;4.07;;;3.00;;
36995;SDS011;22905;50.340;10.776;2023-09-07T11:04:46;4.03;;;3.20;;
36995;SDS011;22905;50.340;10.776;2023-09-07T11:09:46;5.27;;;2.97;;
36995;SDS011;22905;50.340;10.776;2023-09-07T11:14:51;5.22;;;3.15;;
36995;SDS011;22905;50.340;10.776;2023-09-07T11:24:53;6.03;;;2.93;;
36995;SDS011;22905;50.340;10.776;2023-09-07T11:29:55;4.23;;;3.13;;
36995;SDS011;22905;50.340;10.776;2023-09-07T11:34:56;5.22;;;3.17;;
36995;SDS011;22905;50.340;10.776;2023-09-07T11:39:56;6.40;;;3.25;;
36995;SDS011;22905;50.340;10.776;2023-09-07T11:44:56;5.27;;;3.10;;
36995;SDS011;22905;50.340;10.776;2023-09-07T11:49:57;4.07;;;2.90;;
36995;SDS011;22905;50.340;10.776;2023-09-07T11:54:57;7.45;;;3.70;;
36995;SDS011;22905;50.340;10.776;2023-09-07T11:59:57;7.37;;;3.00;;
36995;SDS011;22905;50.340;10.776;2023-09-07T12:04:58;6.20;;;3.23;;
36995;SDS011;22905;50.340;10.776;2023-09-07T12:10:00;7.72;;;2.92;;
36995;SDS011;22905;50.340;10.776;2023-09-07T12:15:00;3.50;;;2.93;;
36995;SDS011;22905;50.340;10.776;2023-09-07T12:20:01;13.03;;;3.73;;
36995;SDS011;22905;50.340;10.776;2023-09-07T12:25:01;7.50;;;3.33;;
36995;SDS011;22905;50.340;10.776;2023-09-07T12:30:02;10.17;;;3.47;;
36995;SDS011;22905;50.340;10.776;2023-09-07T12:35:06;6.68;;;3.38;;
36995;SDS011;22905;50.340;10.776;2023-09-07T12:40:09;4.75;;;2.80;;
36995;SDS011;22905;50.340;10.776;2023-09-07T12:45:14;4.30;;;3.00;;
36995;SDS011;22905;50.340;10.776;2023-09-07T12:50:15;3.43;;;2.57;;
36995;SDS011;22905;50.340;10.776;2023-09-07T12:55:15;6.95;;;3.35;;
36995;SDS011;22905;50.340;10.776;2023-09-07T13:00:16;10.05;;;2.83;;
36995;SDS011;22905;50.340;10.776;2023-09-07T13:05:16;5.13;;;2.80;;
36995;SDS011;22905;50.340;10.776;2023-09-07T13:10:17;5.80;;;3.25;;
36995;SDS011;22905;50.340;10.776;2023-09-07T13:15:18;9.50;;;2.88;;
36995;SDS011;22905;50.340;10.776;2023-09-07T13:20:18;5.77;;;3.03;;
36995;SDS011;22905;50.340;10.776;2023-09-07T13:25:19;7.40;;;2.85;;
36995;SDS011;22905;50.340;10.776;2023-09-07T13:30:20;6.63;;;3.50;;
36995;SDS011;22905;50.340;10.776;2023-09-07T13:35:26;8.82;;;3.00;;
36995;SDS011;22905;50.340;10.776;2023-09-07T13:40:27;4.10;;;2.92;;
36995;SDS011;22905;50.340;10.776;2023-09-07T13:45:29;9.48;;;3.58;;
36995;SDS011;22905;50.340;10.776;2023-09-07T13:50:29;5.97;;;2.93;;
36995;SDS011;22905;50.340;10.776;2023-09-07T13:55:30;11.93;;;2.80;;
36995;SDS011;22905;50.340;10.776;2023-09-07T14:00:30;4.03;;;3.00;;
36995;SDS011;22905;50.340;10.776;2023-09-07T14:05:31;4.38;;;2.40;;
36995;SDS011;22905;50.340;10.776;2023-09-07T14:10:31;6.27;;;3.40;;
36995;SDS011;22905;50.340;10.776;2023-09-07T14:15:31;4.03;;;2.60;;
36995;SDS011;22905;50.340;10.776;2023-09-07T14:20:32;6.00;;;2.70;;
36995;SDS011;22905;50.340;10.776;2023-09-07T14:25:32;3.33;;;2.70;;
36995;SDS011;22905;50.340;10.776;2023-09-07T14:30:32;4.63;;;2.83;;
36995;SDS011;22905;50.340;10.776;2023-09-07T14:35:33;4.37;;;2.57;;
36995;SDS011;22905;50.340;10.776;2023-09-07T14:40:33;4.07;;;3.10;;
36995;SDS011;22905;50.340;10.776;2023-09-07T14:45:33;3.73;;;2.30;;
36995;SDS011;22905;50.340;10.776;2023-09-07T14:50:34;4.43;;;2.00;;
36995;SDS011;22905;50.340;10.776;2023-09-07T14:55:34;3.30;;;2.42;;
36995;SDS011;22905;50.340;10.776;2023-09-07T15:00:35;3.67;;;2.87;;
36995;SDS011;22905;50.340;10.776;2023-09-07T15:05:36;3.20;;;2.88;;
36995;SDS011;22905;50.340;10.776;2023-09-07T15:10:36;5.77;;;2.97;;
36995;SDS011;22905;50.340;10.776;2023-09-07T15:15:37;12.40;;;3.20;;
36995;SDS011;22905;50.340;10.776;2023-09-07T15:20:39;11.20;;;3.05;;
36995;SDS011;22905;50.340;10.776;2023-09-07T15:25:40;7.07;;;3.80;;
36995;SDS011;22905;50.340;10.776;2023-09-07T15:30:40;5.43;;;3.80;;
36995;SDS011;22905;50.340;10.776;2023-09-07T15:35:40;5.50;;;3.60;;
36995;SDS011;22905;50.340;10.776;2023-09-07T15:40:41;10.93;;;2.93;;
36995;SDS011;22905;50.340;10.776;2023-09-07T15:45:44;8.45;;;3.55;;
36995;SDS011;22905;50.340;10.776;2023-09-07T15:50:45;7.67;;;3.10;;
36995;SDS011;22905;50.340;10.776;2023-09-07T15:55:45;3.37;;;3.07;;
36995;SDS011;22905;50.340;10.776;2023-09-07T16:00:46;7.70;;;3.53;;
36995;SDS011;22905;50.340;10.776;2023-09-07T16:05:47;6.43;;;2.87;;
36995;SDS011;22905;50.340;10.776;2023-09-07T16:10:47;5.80;;;3.30;;
36995;SDS011;22905;50.340;10.776;2023-09-07T16:15:47;8.95;;;3.05;;
36995;SDS011;22905;50.340;10.776;2023-09-07T16:20:48;5.65;;;3.50;;
36995;SDS011;22905;50.340;10.776;2023-09-07T16:25:51;5.18;;;2.80;;
36995;SDS011;22905;50.340;10.776;2023-09-07T16:30:54;4.95;;;3.38;;
36995;SDS011;22905;50.340;10.776;2023-09-07T16:35:57;9.93;;;3.70;;
36995;SDS011;22905;50.340;10.776;2023-09-07T16:41:05;3.60;;;3.17;;
36995;SDS011;22905;50.340;10.776;2023-09-07T16:46:06;7.32;;;3.63;;
36995;SDS011;22905;50.340;10.776;2023-09-07T16:51:06;6.57;;;3.03;;
36995;SDS011;22905;50.340;10.776;2023-09-07T16:56:07;3.77;;;3.10;;
36995;SDS011;22905;50.340;10.776;2023-09-07T17:01:16;6.35;;;3.28;;
36995;SDS011;22905;50.340;10.776;2023-09-07T17:06:17;6.20;;;3.10;;
36995;SDS011;22905;50.340;10.776;2023-09-07T17:11:17;4.60;;;3.30;;
36995;SDS011;22905;50.340;10.776;2023-09-07T17:16:17;5.90;;;3.60;;
36995;SDS011;22905;50.340;10.776;2023-09-07T17:21:18;6.43;;;3.30;;
36995;SDS011;22905;50.340;10.776;2023-09-07T17:26:18;4.68;;;3.40;;
36995;SDS011;22905;50.340;10.776;2023-09-07T17:31:18;5.68;;;3.85;;
36995;SDS011;22905;50.340;10.776;2023-09-07T17:36:20;5.80;;;2.90;;
36995;SDS011;22905;50.340;10.776;2023-09-07T17:41:25;8.35;;;4.32;;
36995;SDS011;22905;50.340;10.776;2023-09-07T17:46:25;8.98;;;4.15;;
36995;SDS011;22905;50.340;10.776;2023-09-07T17:51:26;11.77;;;4.23;;
36995;SDS011;22905;50.340;10.776;2023-09-07T17:56:26;8.37;;;3.70;;
36995;SDS011;22905;50.340;10.776;2023-09-07T18:01:26;6.15;;;4.90;;
36995;SDS011;22905;50.340;10.776;2023-09-07T18:06:27;10.15;;;4.45;;
36995;SDS011;22905;50.340;10.776;2023-09-07T18:11:27;7.60;;;4.07;;
36995;SDS011;22905;50.340;10.776;2023-09-07T18:16:28;8.73;;;4.13;;
36995;SDS011;22905;50.340;10.776;2023-09-07T18:21:29;12.13;;;4.77;;
36995;SDS011;22905;50.340;10.776;2023-09-07T18:26:29;13.05;;;5.00;;
36995;SDS011;22905;50.340;10.776;2023-09-07T18:31:31;14.77;;;4.22;;
36995;SDS011;22905;50.340;10.776;2023-09-07T18:36:31;16.70;;;4.47;;
36995;SDS011;22905;50.340;10.776;2023-09-07T18:41:31;10.10;;;4.93;;
36995;SDS011;22905;50.340;10.776;2023-09-07T18:46:32;17.17;;;4.83;;
36995;SDS011;22905;50.340;10.776;2023-09-07T18:51:32;13.20;;;5.67;;
36995;SDS011;22905;50.340;10.776;2023-09-07T18:56:32;15.63;;;5.43;;
36995;SDS011;22905;50.340;10.776;2023-09-07T19:01:33;10.48;;;4.70;;
36995;SDS011;22905;50.340;10.776;2023-09-07T19:06:33;14.27;;;6.03;;
36995;SDS011;22905;50.340;10.776;2023-09-07T19:11:33;10.48;;;5.55;;
36995;SDS011;22905;50.340;10.776;2023-09-07T19:16:34;11.00;;;5.57;;
36995;SDS011;22905;50.340;10.776;2023-09-07T19:21:34;12.57;;;5.57;;
36995;SDS011;22905;50.340;10.776;2023-09-07T19:26:38;12.03;;;5.50;;
36995;SDS011;22905;50.340;10.776;2023-09-07T19:31:39;19.00;;;6.30;;
36995;SDS011;22905;50.340;10.776;2023-09-07T19:36:39;8.23;;;5.87;;
36995;SDS011;22905;50.340;10.776;2023-09-07T19:41:40;16.40;;;5.68;;
36995;SDS011;22905;50.340;10.776;2023-09-07T19:46:40;8.20;;;5.67;;
36995;SDS011;22905;50.340;10.776;2023-09-07T19:51:40;11.50;;;6.28;;
36995;SDS011;22905;50.340;10.776;2023-09-07T19:56:44;16.25;;;4.85;;
36995;SDS011;22905;50.340;10.776;2023-09-07T20:01:51;10.40;;;5.85;;
36995;SDS011;22905;50.340;10.776;2023-09-07T20:06:54;13.25;;;5.15;;
36995;SDS011;22905;50.340;10.776;2023-09-07T20:11:55;8.73;;;5.20;;
36995;SDS011;22905;50.340;10.776;2023-09-07T20:16:56;11.90;;;5.72;;
36995;SDS011;22905;50.340;10.776;2023-09-07T20:21:56;11.07;;;6.25;;
36995;SDS011;22905;50.340;10.776;2023-09-07T20:26:58;10.40;;;5.63;;
36995;SDS011;22905;50.340;10.776;2023-09-07T20:31:58;10.07;;;5.90;;
36995;SDS011;22905;50.340;10.776;2023-09-07T20:36:58;10.53;;;6.60;;
36995;SDS011;22905;50.340;10.776;2023-09-07T20:41:59;11.77;;;6.03;;
36995;SDS011;22905;50.340;10.776;2023-09-07T20:46:59;11.50;;;7.20;;
36995;SDS011;22905;50.340;10.776;2023-09-07T20:51:59;10.83;;;7.00;;
36995;SDS011;22905;50.340;10.776;2023-09-07T20:57:00;11.63;;;6.33;;
36995;SDS011;22905;50.340;10.776;2023-09-07T21:02:00;14.20;;;7.80;;
36995;SDS011;22905;50.340;10.776;2023-09-07T21:07:01;11.52;;;7.03;;
36995;SDS011;22905;50.340;10.776;2023-09-07T21:12:01;8.82;;;6.80;;
36995;SDS011;22905;50.340;10.776;2023-09-07T21:17:01;9.45;;;6.63;;
36995;SDS011;22905;50.340;10.776;2023-09-07T21:22:02;10.77;;;6.82;;
36995;SDS011;22905;50.340;10.776;2023-09-07T21:27:02;14.30;;;7.53;;
36995;SDS011;22905;50.340;10.776;2023-09-07T21:32:03;17.27;;;7.40;;
36995;SDS011;22905;50.340;10.776;2023-09-07T21:37:03;9.45;;;6.47;;
36995;SDS011;22905;50.340;10.776;2023-09-07T21:42:04;10.55;;;7.63;;
36995;SDS011;22905;50.340;10.776;2023-09-07T21:47:04;14.07;;;7.13;;
36995;SDS011;22905;50.340;10.776;2023-09-07T21:52:05;15.10;;;7.90;;
36995;SDS011;22905;50.340;10.776;2023-09-07T21:57:05;8.82;;;6.47;;
36995;SDS011;22905;50.340;10.776;2023-09-07T22:02:05;10.07;;;6.87;;
36995;SDS011;22905;50.340;10.776;2023-09-07T22:07:06;14.97;;;6.47;;
36995;SDS011;22905;50.340;10.776;2023-09-07T22:12:06;17.27;;;7.13;;
36995;SDS011;22905;50.340;10.776;2023-09-07T22:17:06;10.75;;;6.82;;
36995;SDS011;22905;50.340;10.776;2023-09-07T22:22:07;14.43;;;7.27;;
36995;SDS011;22905;50.340;10.776;2023-09-07T22:27:07;11.55;;;7.47;;
36995;SDS011;22905;50.340;10.776;2023-09-07T22:32:08;12.82;;;5.97;;
36995;SDS011;22905;50.340;10.776;2023-09-07T22:37:08;11.77;;;6.10;;
36995;SDS011;22905;50.340;10.776;2023-09-07T22:42:09;10.67;;;6.63;;
36995;SDS011;22905;50.340;10.776;2023-09-07T22:47:10;14.05;;;7.65;;
36995;SDS011;22905;50.340;10.776;2023-09-07T22:52:10;11.43;;;7.35;;
36995;SDS011;22905;50.340;10.776;2023-09-07T22:57:10;12.13;;;7.53;;
36995;SDS011;22905;50.340;10.776;2023-09-07T23:02:11;12.03;;;6.93;;
36995;SDS011;22905;50.340;10.776;2023-09-07T23:07:11;11.23;;;6.90;;
36995;SDS011;22905;50.340;10.776;2023-09-07T23:12:13;20.57;;;7.20;;
36995;SDS011;22905;50.340;10.776;2023-09-07T23:17:13;13.53;;;7.37;;
36995;SDS011;22905;50.340;10.776;2023-09-07T23:22:13;13.57;;;7.17;;
36995;SDS011;22905;50.340;10.776;2023-09-07T23:27:14;12.43;;;7.50;;
36995;SDS011;22905;50.340;10.776;2023-09-07T23:32:14;11.17;;;7.27;;
36995;SDS011;22905;50.340;10.776;2023-09-07T23:37:15;12.50;;;7.65;;
36995;SDS011;22905;50.340;10.776;2023-09-07T23:42:16;13.13;;;7.47;;
36995;SDS011;22905;50.340;10.776;2023-09-07T23:47:17;9.90;;;7.47;;
36995;SDS011;22905;50.340;10.776;2023-09-07T23:52:17;14.33;;;8.07;;
36995;SDS011;22905;50.340;10.776;2023-09-07T23:57:17;11.48;;;8.05;;
